createdAt,value
2018-12-26T00:01:53.713Z,2.90
2018-12-26T00:04:22.526Z,2.90
2018-12-26T00:06:51.284Z,2.90
2018-12-26T00:09:19.997Z,2.90
2018-12-26T00:11:48.734Z,3.00
2018-12-26T00:14:17.442Z,2.90
2018-12-26T00:16:46.157Z,3.00
2018-12-26T00:19:14.876Z,2.90
2018-12-26T00:21:43.580Z,2.90
2018-12-26T00:24:12.360Z,3.00
2018-12-26T00:26:41.080Z,3.00
2018-12-26T00:29:09.842Z,3.00
2018-12-26T00:31:38.621Z,3.00
2018-12-26T00:34:07.337Z,3.00
2018-12-26T00:36:36.067Z,3.00
2018-12-26T00:39:06.448Z,3.00
2018-12-26T00:41:35.129Z,3.00
2018-12-26T00:44:03.849Z,3.00
2018-12-26T00:46:32.608Z,3.00
2018-12-26T00:49:01.440Z,3.10
2018-12-26T00:51:30.182Z,3.10
2018-12-26T00:53:58.884Z,3.10
2018-12-26T00:56:27.668Z,3.10
2018-12-26T00:58:56.391Z,3.10
2018-12-26T01:01:25.180Z,3.10
2018-12-26T01:03:53.948Z,3.10
2018-12-26T01:06:22.629Z,3.10
2018-12-26T01:08:51.356Z,3.10
2018-12-26T01:11:20.095Z,3.10
2018-12-26T01:13:48.805Z,3.10
2018-12-26T01:16:17.520Z,3.10
2018-12-26T01:18:46.247Z,3.10
2018-12-26T01:21:15.004Z,3.10
2018-12-26T01:23:43.724Z,3.10
2018-12-26T01:26:19.121Z,3.10
2018-12-26T01:28:43.056Z,3.10
2018-12-26T01:31:11.774Z,3.10
2018-12-26T01:33:40.488Z,3.10
2018-12-26T01:36:09.272Z,3.10
2018-12-26T01:38:37.990Z,3.10
2018-12-26T01:41:06.783Z,3.10
2018-12-26T01:43:35.482Z,3.10
2018-12-26T01:46:06.057Z,3.10
2018-12-26T01:48:34.859Z,3.10
2018-12-26T01:51:03.655Z,3.20
2018-12-26T01:53:32.623Z,3.20
2018-12-26T01:56:01.306Z,3.20
2018-12-26T01:58:30.134Z,3.20
2018-12-26T02:00:58.845Z,3.20
2018-12-26T02:03:27.464Z,3.10
2018-12-26T02:05:56.202Z,3.10
2018-12-26T02:08:24.913Z,3.10
2018-12-26T02:10:53.603Z,3.10
2018-12-26T02:13:22.300Z,3.10
2018-12-26T02:15:50.999Z,3.10
2018-12-26T02:18:19.690Z,3.10
2018-12-26T02:20:48.401Z,3.10
2018-12-26T02:23:17.046Z,3.00
2018-12-26T02:25:45.748Z,3.10
2018-12-26T02:28:14.470Z,3.10
2018-12-26T02:30:43.187Z,3.10
2018-12-26T02:33:11.856Z,3.10
2018-12-26T02:35:40.643Z,3.10
2018-12-26T02:38:09.341Z,3.10
2018-12-26T02:40:38.307Z,3.10
2018-12-26T02:43:07.002Z,3.00
2018-12-26T02:45:35.703Z,3.10
2018-12-26T02:48:04.396Z,3.10
2018-12-26T02:50:33.193Z,3.00
2018-12-26T02:53:01.915Z,3.00
2018-12-26T02:55:30.559Z,3.10
2018-12-26T02:57:59.354Z,3.00
2018-12-26T03:00:28.148Z,3.00
2018-12-26T03:02:56.850Z,3.00
2018-12-26T03:05:25.542Z,3.00
2018-12-26T03:07:54.245Z,3.00
2018-12-26T03:10:22.974Z,3.00
2018-12-26T03:12:51.664Z,2.90
2018-12-26T03:15:20.474Z,2.90
2018-12-26T03:17:49.216Z,2.90
2018-12-26T03:20:17.905Z,2.90
2018-12-26T03:22:46.583Z,2.90
2018-12-26T03:25:15.298Z,2.90
2018-12-26T03:27:44.048Z,2.80
2018-12-26T03:30:12.831Z,2.80
2018-12-26T03:32:41.556Z,2.80
2018-12-26T03:35:10.280Z,2.80
2018-12-26T03:37:39.083Z,2.80
2018-12-26T03:40:08.773Z,2.80
2018-12-26T03:42:37.472Z,2.80
2018-12-26T03:45:06.434Z,2.80
2018-12-26T03:47:35.136Z,2.80
2018-12-26T03:50:04.359Z,2.80
2018-12-26T03:52:33.248Z,2.70
2018-12-26T03:55:01.944Z,2.70
2018-12-26T03:57:30.970Z,2.80
2018-12-26T03:59:59.761Z,2.70
2018-12-26T04:02:28.451Z,2.70
2018-12-26T04:04:57.178Z,2.70
2018-12-26T04:07:25.884Z,2.70
2018-12-26T04:09:54.597Z,2.70
2018-12-26T04:12:23.297Z,2.70
2018-12-26T04:14:51.994Z,2.70
2018-12-26T04:17:20.772Z,2.70
2018-12-26T04:19:49.589Z,2.60
2018-12-26T04:22:18.291Z,2.60
2018-12-26T04:24:47.282Z,2.60
2018-12-26T04:27:16.068Z,2.60
2018-12-26T04:29:44.879Z,2.60
2018-12-26T04:32:13.577Z,2.60
2018-12-26T04:34:42.369Z,2.50
2018-12-26T04:37:11.358Z,2.50
2018-12-26T04:39:39.986Z,2.50
2018-12-26T04:42:08.690Z,2.50
2018-12-26T04:44:37.448Z,2.50
2018-12-26T04:47:06.079Z,2.50
2018-12-26T04:49:34.804Z,2.50
2018-12-26T04:52:03.590Z,2.50
2018-12-26T04:54:32.374Z,2.50
2018-12-26T04:57:01.311Z,2.50
2018-12-26T04:59:30.029Z,2.50
2018-12-26T05:01:58.720Z,2.50
2018-12-26T05:04:27.439Z,2.50
2018-12-26T05:06:56.166Z,2.50
2018-12-26T05:09:24.884Z,2.50
2018-12-26T05:11:53.586Z,2.40
2018-12-26T05:14:22.322Z,2.40
2018-12-26T05:16:50.975Z,2.40
2018-12-26T05:19:19.606Z,2.40
2018-12-26T05:21:48.327Z,2.40
2018-12-26T05:24:17.021Z,2.40
2018-12-26T05:26:45.722Z,2.40
2018-12-26T05:29:14.434Z,2.40
2018-12-26T05:31:43.133Z,2.40
2018-12-26T05:34:11.761Z,2.40
2018-12-26T05:36:40.494Z,2.30
2018-12-26T05:39:09.184Z,2.30
2018-12-26T05:41:37.939Z,2.40
2018-12-26T05:44:06.648Z,2.30
2018-12-26T05:46:35.332Z,2.30
2018-12-26T05:49:04.037Z,2.40
2018-12-26T05:51:32.682Z,2.30
2018-12-26T05:54:01.434Z,2.30
2018-12-26T05:56:30.398Z,2.30
2018-12-26T05:58:59.097Z,2.30
2018-12-26T06:01:27.879Z,2.30
2018-12-26T06:04:08.929Z,2.30
2018-12-26T06:06:37.643Z,2.30
2018-12-26T06:09:07.260Z,2.30
2018-12-26T06:11:35.941Z,2.30
2018-12-26T06:14:04.702Z,2.30
2018-12-26T06:16:33.413Z,2.30
2018-12-26T06:19:02.123Z,2.20
2018-12-26T06:21:30.814Z,2.20
2018-12-26T06:23:59.466Z,2.20
2018-12-26T06:26:28.172Z,2.20
2018-12-26T06:28:56.782Z,2.20
2018-12-26T06:31:25.576Z,2.20
2018-12-26T06:33:57.741Z,2.20
2018-12-26T06:36:26.076Z,2.20
2018-12-26T06:38:54.787Z,2.20
2018-12-26T06:41:23.445Z,2.20
2018-12-26T06:43:52.145Z,2.20
2018-12-26T06:46:20.822Z,2.20
2018-12-26T06:48:49.635Z,2.20
2018-12-26T06:51:18.178Z,2.20
2018-12-26T06:53:46.898Z,2.20
2018-12-26T06:56:15.593Z,2.20
2018-12-26T06:58:44.377Z,2.10
2018-12-26T07:01:13.145Z,2.10
2018-12-26T07:03:41.830Z,2.10
2018-12-26T07:06:10.536Z,2.10
2018-12-26T07:08:39.248Z,2.10
2018-12-26T07:11:07.946Z,2.00
2018-12-26T07:13:36.505Z,2.00
2018-12-26T07:16:05.229Z,2.00
2018-12-26T07:18:33.921Z,2.00
2018-12-26T07:21:02.600Z,2.00
2018-12-26T07:23:31.319Z,2.00
2018-12-26T07:25:59.994Z,2.00
2018-12-26T07:28:28.703Z,2.00
2018-12-26T07:30:57.377Z,2.00
2018-12-26T07:33:26.079Z,2.00
2018-12-26T07:35:54.772Z,2.00
2018-12-26T07:38:23.323Z,1.90
2018-12-26T07:40:52.048Z,1.90
2018-12-26T07:43:20.734Z,1.90
2018-12-26T07:45:49.451Z,1.90
2018-12-26T07:48:18.181Z,1.90
2018-12-26T07:50:46.875Z,1.80
2018-12-26T07:53:15.581Z,1.80
2018-12-26T07:55:44.310Z,1.80
2018-12-26T07:58:17.510Z,1.80
2018-12-26T08:00:43.372Z,1.80
2018-12-26T08:03:12.104Z,1.80
2018-12-26T08:05:40.820Z,1.80
2018-12-26T08:08:09.543Z,1.90
2018-12-26T08:10:38.241Z,1.90
2018-12-26T08:13:06.960Z,1.90
2018-12-26T08:15:35.662Z,1.90
2018-12-26T08:18:04.370Z,1.90
2018-12-26T08:20:33.156Z,1.90
2018-12-26T08:23:01.885Z,1.90
2018-12-26T08:25:30.590Z,1.90
2018-12-26T08:27:59.320Z,2.00
2018-12-26T08:30:28.006Z,2.00
2018-12-26T08:32:56.765Z,2.00
2018-12-26T08:35:25.777Z,2.00
2018-12-26T08:37:54.439Z,2.10
2018-12-26T08:40:23.170Z,2.10
2018-12-26T08:42:51.812Z,2.20
2018-12-26T08:45:20.534Z,2.30
2018-12-26T08:47:49.278Z,2.30
2018-12-26T08:50:18.068Z,2.50
2018-12-26T08:52:46.784Z,2.60
2018-12-26T08:55:15.464Z,2.80
2018-12-26T08:57:44.233Z,3.50
2018-12-26T09:00:13.480Z,4.00
2018-12-26T09:02:42.177Z,4.20
2018-12-26T09:05:10.906Z,4.40
2018-12-26T09:07:39.611Z,4.70
2018-12-26T09:10:10.410Z,5.10
2018-12-26T09:12:39.197Z,5.90
2018-12-26T09:15:07.880Z,6.50
2018-12-26T09:17:36.585Z,7.20
2018-12-26T09:20:06.620Z,6.70
2018-12-26T09:22:35.303Z,6.20
2018-12-26T09:25:04.317Z,5.70
2018-12-26T09:27:33.243Z,5.30
2018-12-26T09:30:01.945Z,5.10
2018-12-26T09:32:30.668Z,6.80
2018-12-26T09:34:59.467Z,8.50
2018-12-26T09:37:28.353Z,10.60
2018-12-26T09:39:57.043Z,12.20
2018-12-26T09:42:25.837Z,13.90
2018-12-26T09:44:54.815Z,15.10
2018-12-26T09:47:23.909Z,15.00
2018-12-26T09:49:52.635Z,15.70
2018-12-26T09:52:21.357Z,13.60
2018-12-26T09:54:50.138Z,12.00
2018-12-26T09:57:18.903Z,10.50
2018-12-26T09:59:47.691Z,9.10
2018-12-26T10:02:16.391Z,8.10
2018-12-26T10:04:45.131Z,7.40
2018-12-26T10:07:13.847Z,6.80
2018-12-26T10:09:42.549Z,6.30
2018-12-26T10:12:11.270Z,6.00
2018-12-26T10:14:40.002Z,5.80
2018-12-26T10:17:08.721Z,5.90
2018-12-26T10:19:37.419Z,6.30
2018-12-26T10:22:06.192Z,7.40
2018-12-26T10:24:34.906Z,9.50
2018-12-26T10:27:03.633Z,10.70
2018-12-26T10:29:32.296Z,11.00
2018-12-26T10:32:01.019Z,10.90
2018-12-26T10:34:29.729Z,10.20
2018-12-26T10:36:58.546Z,9.60
2018-12-26T10:39:27.262Z,9.40
2018-12-26T10:41:56.072Z,9.10
2018-12-26T10:44:24.761Z,8.80
2018-12-26T10:46:53.451Z,9.00
2018-12-26T10:49:22.169Z,10.30
2018-12-26T10:51:50.878Z,10.90
2018-12-26T10:54:19.591Z,10.60
2018-12-26T10:56:48.376Z,9.40
2018-12-26T10:59:17.076Z,8.80
2018-12-26T11:01:45.812Z,8.20
2018-12-26T11:04:14.518Z,7.80
2018-12-26T11:06:43.130Z,7.50
2018-12-26T11:09:11.981Z,7.20
2018-12-26T11:11:40.688Z,7.10
2018-12-26T11:14:09.382Z,6.90
2018-12-26T11:16:38.591Z,6.90
2018-12-26T11:19:07.307Z,6.90
2018-12-26T11:21:36.057Z,7.00
2018-12-26T11:24:04.838Z,7.10
2018-12-26T11:26:33.578Z,7.20
2018-12-26T11:29:02.243Z,7.20
2018-12-26T11:31:30.991Z,7.20
2018-12-26T11:33:59.732Z,7.30
2018-12-26T11:36:28.444Z,7.30
2018-12-26T11:38:57.417Z,7.40
2018-12-26T11:41:26.139Z,7.40
2018-12-26T11:43:54.831Z,7.50
2018-12-26T11:46:23.542Z,7.50
2018-12-26T11:48:52.248Z,7.50
2018-12-26T11:51:20.960Z,7.60
2018-12-26T11:53:49.823Z,7.60
2018-12-26T11:56:18.598Z,7.70
2018-12-26T11:58:47.334Z,7.80
2018-12-26T12:01:16.024Z,7.90
2018-12-26T12:03:44.761Z,7.90
2018-12-26T12:06:13.432Z,7.90
2018-12-26T12:08:42.159Z,8.00
2018-12-26T12:11:10.866Z,8.10
2018-12-26T12:13:39.601Z,8.00
2018-12-26T12:16:08.280Z,7.90
2018-12-26T12:18:37.062Z,8.00
2018-12-26T12:21:05.758Z,8.00
2018-12-26T12:23:34.637Z,8.00
2018-12-26T12:26:03.374Z,8.10
2018-12-26T12:28:32.078Z,8.10
2018-12-26T12:31:00.770Z,8.10
2018-12-26T12:33:29.491Z,8.00
2018-12-26T12:35:58.192Z,8.00
2018-12-26T12:38:26.962Z,8.10
2018-12-26T12:40:55.780Z,8.00
2018-12-26T12:43:24.467Z,8.00
2018-12-26T12:45:53.253Z,7.90
2018-12-26T12:48:21.992Z,7.80
2018-12-26T12:50:50.701Z,7.70
2018-12-26T12:53:19.406Z,7.70
2018-12-26T12:55:48.246Z,7.60
2018-12-26T12:58:17.413Z,7.40
2018-12-26T13:00:46.152Z,7.30
2018-12-26T13:03:14.856Z,7.10
2018-12-26T13:05:43.639Z,6.90
2018-12-26T13:08:13.285Z,6.80
2018-12-26T13:10:42.047Z,6.60
2018-12-26T13:13:10.769Z,6.60
2018-12-26T13:15:39.453Z,6.40
2018-12-26T13:18:08.169Z,6.30
2018-12-26T13:20:36.976Z,6.20
2018-12-26T13:23:05.684Z,6.10
2018-12-26T13:25:34.386Z,6.00
2018-12-26T13:28:03.085Z,6.00
2018-12-26T13:30:31.780Z,6.00
2018-12-26T13:33:00.478Z,5.90
2018-12-26T13:35:29.190Z,5.80
2018-12-26T13:37:57.830Z,5.80
2018-12-26T13:40:27.928Z,5.70
2018-12-26T13:42:56.490Z,5.60
2018-12-26T13:45:25.200Z,5.60
2018-12-26T13:47:53.886Z,5.50
2018-12-26T13:50:22.638Z,5.50
2018-12-26T13:52:51.423Z,5.50
2018-12-26T13:55:20.140Z,5.40
2018-12-26T13:57:48.854Z,5.30
2018-12-26T14:00:17.634Z,5.30
2018-12-26T14:02:46.338Z,5.20
2018-12-26T14:05:15.036Z,5.10
2018-12-26T14:07:43.860Z,5.00
2018-12-26T14:10:12.577Z,5.00
2018-12-26T14:12:41.255Z,5.00
2018-12-26T14:15:10.552Z,4.90
2018-12-26T14:17:39.382Z,4.90
2018-12-26T14:20:08.195Z,4.80
2018-12-26T14:22:36.911Z,4.80
2018-12-26T14:25:07.913Z,4.80
2018-12-26T14:27:36.602Z,4.70
2018-12-26T14:30:11.362Z,4.70
2018-12-26T14:32:39.348Z,4.60
2018-12-26T14:35:08.069Z,4.50
2018-12-26T14:37:38.927Z,4.50
2018-12-26T14:40:07.758Z,4.50
2018-12-26T14:42:36.430Z,4.40
2018-12-26T14:45:05.310Z,4.40
2018-12-26T14:47:34.069Z,4.40
2018-12-26T14:50:02.957Z,4.40
2018-12-26T14:52:31.685Z,4.30
2018-12-26T14:55:00.390Z,4.30
2018-12-26T14:57:29.077Z,4.30
2018-12-26T14:59:57.797Z,4.30
2018-12-26T15:02:26.502Z,4.20
2018-12-26T15:04:55.228Z,4.20
2018-12-26T15:07:23.958Z,4.20
2018-12-26T15:09:52.688Z,4.10
2018-12-26T15:12:21.376Z,4.10
2018-12-26T15:14:49.928Z,4.00
2018-12-26T15:17:18.648Z,4.00
2018-12-26T15:19:47.342Z,4.00
2018-12-26T15:22:16.071Z,3.90
2018-12-26T15:24:44.789Z,3.90
2018-12-26T15:27:13.491Z,3.80
2018-12-26T15:29:42.182Z,3.70
2018-12-26T15:32:11.010Z,3.70
2018-12-26T15:34:39.673Z,3.70
2018-12-26T15:37:08.354Z,3.70
2018-12-26T15:39:37.152Z,3.60
2018-12-26T15:42:05.889Z,3.60
2018-12-26T15:44:34.572Z,3.60
2018-12-26T15:47:03.534Z,3.60
2018-12-26T15:49:32.302Z,3.50
2018-12-26T15:52:01.018Z,3.40
2018-12-26T15:54:29.647Z,3.30
2018-12-26T15:56:58.382Z,3.30
2018-12-26T15:59:27.060Z,3.30
2018-12-26T16:01:55.788Z,3.20
2018-12-26T16:04:24.498Z,3.20
2018-12-26T16:06:53.181Z,3.10
2018-12-26T16:09:21.938Z,3.10
2018-12-26T16:11:51.125Z,3.10
2018-12-26T16:14:19.842Z,3.10
2018-12-26T16:16:48.540Z,3.10
2018-12-26T16:19:17.275Z,3.00
2018-12-26T16:21:46.040Z,3.00
2018-12-26T16:24:14.582Z,3.00
2018-12-26T16:26:43.368Z,2.90
2018-12-26T16:29:12.068Z,2.90
2018-12-26T16:31:40.778Z,2.90
2018-12-26T16:34:09.540Z,2.90
2018-12-26T16:36:38.279Z,2.80
2018-12-26T16:39:06.976Z,2.80
2018-12-26T16:41:35.635Z,2.70
2018-12-26T16:44:04.316Z,2.70
2018-12-26T16:46:33.006Z,2.70
2018-12-26T16:49:01.836Z,2.70
2018-12-26T16:51:30.533Z,2.70
2018-12-26T16:54:18.622Z,2.70
2018-12-26T16:56:47.364Z,2.70
2018-12-26T16:59:16.103Z,2.70
2018-12-26T17:01:44.891Z,2.70
2018-12-26T17:04:13.707Z,2.80
2018-12-26T17:06:42.480Z,2.80
2018-12-26T17:09:11.180Z,2.80
2018-12-26T17:11:39.881Z,2.80
2018-12-26T17:14:08.645Z,2.80
2018-12-26T17:16:37.367Z,2.80
2018-12-26T17:19:06.013Z,2.80
2018-12-26T17:21:34.696Z,2.80
2018-12-26T17:24:03.413Z,2.70
2018-12-26T17:26:32.127Z,2.70
2018-12-26T17:29:02.484Z,2.70
2018-12-26T17:31:32.096Z,2.70
2018-12-26T17:34:01.040Z,2.70
2018-12-26T17:36:29.776Z,2.80
2018-12-26T17:38:58.532Z,2.80
2018-12-26T17:41:27.329Z,2.80
2018-12-26T17:43:56.035Z,2.80
2018-12-26T17:46:24.801Z,2.90
2018-12-26T17:48:53.491Z,2.90
2018-12-26T17:51:22.204Z,2.90
2018-12-26T17:53:53.922Z,2.90
2018-12-26T17:56:31.697Z,2.90
2018-12-26T17:59:09.091Z,2.90
2018-12-26T18:01:56.005Z,2.90
2018-12-26T18:04:24.662Z,3.00
2018-12-26T18:06:53.441Z,3.00
2018-12-26T18:09:22.140Z,3.00
2018-12-26T18:11:51.407Z,3.00
2018-12-26T18:14:20.239Z,3.10
2018-12-26T18:16:48.949Z,3.10
2018-12-26T18:19:17.726Z,3.10
2018-12-26T18:21:46.464Z,3.10
2018-12-26T18:24:15.177Z,3.10
2018-12-26T18:26:43.926Z,3.20
2018-12-26T18:29:12.606Z,3.20
2018-12-26T18:31:41.328Z,3.30
2018-12-26T18:34:10.042Z,3.30
2018-12-26T18:36:38.738Z,3.30
2018-12-26T18:39:07.744Z,3.30
2018-12-26T18:41:36.532Z,3.40
2018-12-26T18:44:05.246Z,3.40
2018-12-26T18:46:34.054Z,3.40
2018-12-26T18:49:02.874Z,3.40
2018-12-26T18:51:31.599Z,3.40
2018-12-26T18:54:00.319Z,3.50
2018-12-26T18:56:28.922Z,3.50
2018-12-26T18:58:57.639Z,3.50
2018-12-26T19:01:45.625Z,3.50
2018-12-26T19:04:14.601Z,3.50
2018-12-26T19:06:43.366Z,3.50
2018-12-26T19:09:12.061Z,3.60
2018-12-26T19:11:40.716Z,3.60
2018-12-26T19:14:09.409Z,3.60
2018-12-26T19:16:38.208Z,3.60
2018-12-26T19:19:06.920Z,3.60
2018-12-26T19:21:35.603Z,3.60
2018-12-26T19:24:04.243Z,3.60
2018-12-26T19:26:32.991Z,3.60
2018-12-26T19:29:01.707Z,3.70
2018-12-26T19:31:30.426Z,3.60
2018-12-26T19:34:00.779Z,3.70
2018-12-26T19:36:29.463Z,3.70
2018-12-26T19:38:58.252Z,3.70
2018-12-26T19:41:26.952Z,3.70
2018-12-26T19:43:55.664Z,3.70
2018-12-26T19:46:24.364Z,3.70
2018-12-26T19:48:53.070Z,3.70
2018-12-26T19:51:21.787Z,3.70
2018-12-26T19:53:50.488Z,3.70
2018-12-26T19:56:19.591Z,3.70
2018-12-26T19:58:48.345Z,3.70
2018-12-26T20:01:17.048Z,3.60
2018-12-26T20:03:45.683Z,3.60
2018-12-26T20:06:14.372Z,3.60
2018-12-26T20:08:43.085Z,3.60
2018-12-26T20:11:11.772Z,3.60
2018-12-26T20:13:40.469Z,3.70
2018-12-26T20:16:09.186Z,3.70
2018-12-26T20:18:37.883Z,3.70
2018-12-26T20:21:06.611Z,3.70
2018-12-26T20:23:35.341Z,3.70
2018-12-26T20:26:03.998Z,3.70
2018-12-26T20:28:32.809Z,3.70
2018-12-26T20:31:01.516Z,3.70
2018-12-26T20:33:30.227Z,3.70
2018-12-26T20:35:58.949Z,3.70
2018-12-26T20:38:27.584Z,3.70
2018-12-26T20:40:56.296Z,3.70
2018-12-26T20:43:25.006Z,3.80
2018-12-26T20:45:53.716Z,3.70
2018-12-26T20:48:22.403Z,3.70
2018-12-26T20:50:51.158Z,3.70
2018-12-26T20:53:19.859Z,3.70
2018-12-26T20:55:48.823Z,3.70
2018-12-26T20:58:17.528Z,3.70
2018-12-26T21:00:46.232Z,3.70
2018-12-26T21:03:14.956Z,3.80
2018-12-26T21:05:43.683Z,3.80
2018-12-26T21:08:12.445Z,3.80
2018-12-26T21:10:41.152Z,3.80
2018-12-26T21:13:09.903Z,3.70
2018-12-26T21:15:38.667Z,3.70
2018-12-26T21:18:07.376Z,3.80
2018-12-26T21:20:36.098Z,3.70
2018-12-26T21:23:04.960Z,3.70
2018-12-26T21:25:33.612Z,3.70
2018-12-26T21:28:02.327Z,3.70
2018-12-26T21:30:31.024Z,3.70
2018-12-26T21:32:59.710Z,3.70
2018-12-26T21:35:28.436Z,3.70
2018-12-26T21:37:57.110Z,3.70
2018-12-26T21:40:25.831Z,3.70
2018-12-26T21:42:54.558Z,3.70
2018-12-26T21:45:24.863Z,3.70
2018-12-26T21:47:53.809Z,3.70
2018-12-26T21:50:22.468Z,3.70
2018-12-26T21:52:51.198Z,3.70
2018-12-26T21:55:19.958Z,3.70
2018-12-26T21:57:48.605Z,3.60
2018-12-26T22:00:17.298Z,3.60
2018-12-26T22:02:45.998Z,3.60
2018-12-26T22:05:14.723Z,3.60
2018-12-26T22:07:43.494Z,3.60
2018-12-26T22:10:12.210Z,3.60
2018-12-26T22:12:40.895Z,3.60
2018-12-26T22:15:09.608Z,3.60
2018-12-26T22:17:38.377Z,3.60
2018-12-26T22:20:07.511Z,3.60
2018-12-26T22:22:36.194Z,3.60
2018-12-26T22:25:05.535Z,3.60
2018-12-26T22:27:34.189Z,3.60
2018-12-26T22:30:02.912Z,3.60
2018-12-26T22:32:31.604Z,3.60
2018-12-26T22:35:00.288Z,3.60
2018-12-26T22:37:29.000Z,3.70
2018-12-26T22:39:57.722Z,3.60
2018-12-26T22:42:26.414Z,3.60
2018-12-26T22:44:55.114Z,3.60
2018-12-26T22:47:23.730Z,3.70
2018-12-26T22:49:52.438Z,3.70
2018-12-26T22:52:21.150Z,3.70
2018-12-26T22:54:49.842Z,3.70
2018-12-26T22:57:18.502Z,3.70
2018-12-26T22:59:47.205Z,3.80
2018-12-26T23:02:15.831Z,3.80
2018-12-26T23:04:44.552Z,3.80
2018-12-26T23:07:13.252Z,3.80
2018-12-26T23:09:41.952Z,3.80
2018-12-26T23:12:10.664Z,3.90
2018-12-26T23:14:39.390Z,3.80
2018-12-26T23:17:08.112Z,3.90
2018-12-26T23:19:36.830Z,3.90
2018-12-26T23:22:05.537Z,3.90
2018-12-26T23:24:34.214Z,3.90
2018-12-26T23:27:02.912Z,4.00
2018-12-26T23:29:31.633Z,4.00
2018-12-26T23:32:00.339Z,4.00
2018-12-26T23:34:29.115Z,4.00
2018-12-26T23:36:57.822Z,4.00
2018-12-26T23:39:26.605Z,4.10
2018-12-26T23:41:55.292Z,4.10
2018-12-26T23:44:23.988Z,4.10
2018-12-26T23:46:52.762Z,4.10
2018-12-26T23:49:21.577Z,4.10
2018-12-26T23:51:50.266Z,4.20
2018-12-26T23:54:18.995Z,4.20
2018-12-26T23:56:47.673Z,4.20
2018-12-26T23:59:16.313Z,4.20
